createdAt,value
2019-02-22T00:02:24.441Z,26.10
2019-02-22T00:04:54.564Z,26.23
2019-02-22T00:07:24.055Z,24.43
2019-02-22T00:09:53.560Z,24.17
2019-02-22T00:12:22.772Z,26.70
2019-02-22T00:14:52.000Z,26.13
2019-02-22T00:17:21.469Z,25.00
2019-02-22T00:19:50.782Z,24.43
2019-02-22T00:22:20.275Z,25.10
2019-02-22T00:24:49.691Z,25.70
2019-02-22T00:27:18.995Z,25.47
2019-02-22T00:29:48.556Z,26.33
2019-02-22T00:32:17.989Z,25.67
2019-02-22T00:34:47.330Z,24.67
2019-02-22T00:37:16.828Z,25.63
2019-02-22T00:39:46.310Z,24.47
2019-02-22T00:42:15.723Z,25.07
2019-02-22T00:44:45.111Z,24.93
2019-02-22T00:47:14.323Z,25.43
2019-02-22T00:49:43.491Z,25.50
2019-02-22T00:52:12.919Z,23.67
2019-02-22T00:54:42.420Z,24.40
2019-02-22T00:57:11.641Z,25.03
2019-02-22T00:59:41.021Z,24.63
2019-02-22T01:02:10.552Z,25.03
2019-02-22T01:04:40.157Z,25.33
2019-02-22T01:07:09.656Z,24.57
2019-02-22T01:09:39.273Z,25.33
2019-02-22T01:12:08.777Z,25.47
2019-02-22T01:14:38.177Z,24.30
2019-02-22T01:17:07.780Z,25.43
2019-02-22T01:19:37.280Z,25.67
2019-02-22T01:22:06.548Z,24.13
2019-02-22T01:24:36.295Z,25.47
2019-02-22T01:27:05.800Z,24.17
2019-02-22T01:29:35.305Z,24.47
2019-02-22T01:32:04.728Z,23.17
2019-02-22T01:34:34.232Z,26.13
2019-02-22T01:37:03.718Z,24.50
2019-02-22T01:39:32.941Z,24.53
2019-02-22T01:42:02.468Z,23.20
2019-02-22T01:44:31.762Z,24.27
2019-02-22T01:47:01.142Z,22.73
2019-02-22T01:49:33.826Z,23.67
2019-02-22T01:52:03.023Z,24.47
2019-02-22T01:54:32.414Z,22.40
2019-02-22T01:57:01.924Z,24.40
2019-02-22T01:59:31.131Z,23.97
2019-02-22T02:02:00.330Z,22.57
2019-02-22T02:04:29.514Z,23.17
2019-02-22T02:06:59.094Z,23.50
2019-02-22T02:09:28.839Z,22.50
2019-02-22T02:11:58.242Z,22.10
2019-02-22T02:14:27.456Z,21.93
2019-02-22T02:16:56.848Z,24.10
2019-02-22T02:19:26.062Z,22.30
2019-02-22T02:21:55.549Z,22.93
2019-02-22T02:24:24.863Z,22.17
2019-02-22T02:26:54.363Z,21.87
2019-02-22T02:29:23.866Z,22.57
2019-02-22T02:31:53.375Z,22.10
2019-02-22T02:34:22.775Z,22.33
2019-02-22T02:36:52.190Z,22.23
2019-02-22T02:39:21.685Z,23.00
2019-02-22T02:41:51.212Z,21.87
2019-02-22T02:44:20.702Z,23.67
2019-02-22T02:46:50.019Z,22.97
2019-02-22T02:49:19.615Z,23.07
2019-02-22T02:51:49.115Z,22.27
2019-02-22T02:54:18.323Z,20.37
2019-02-22T02:56:47.625Z,22.27
2019-02-22T02:59:17.125Z,22.37
2019-02-22T03:01:46.731Z,23.20
2019-02-22T03:04:16.237Z,21.23
2019-02-22T03:06:50.045Z,21.90
2019-02-22T03:09:19.555Z,21.87
2019-02-22T03:11:48.863Z,22.13
2019-02-22T03:14:18.268Z,21.40
2019-02-22T03:16:47.765Z,22.30
2019-02-22T03:19:16.973Z,21.23
2019-02-22T03:21:46.361Z,21.53
2019-02-22T03:24:15.873Z,21.43
2019-02-22T03:26:45.389Z,21.33
2019-02-22T03:29:14.879Z,21.70
2019-02-22T03:31:44.480Z,21.30
2019-02-22T03:34:13.998Z,21.73
2019-02-22T03:36:43.211Z,20.37
2019-02-22T03:39:12.611Z,19.83
2019-02-22T03:41:41.813Z,18.93
2019-02-22T03:44:11.313Z,21.47
2019-02-22T03:46:40.515Z,21.03
2019-02-22T03:49:09.715Z,20.90
2019-02-22T03:51:38.913Z,18.33
2019-02-22T03:54:08.410Z,19.20
2019-02-22T03:56:37.830Z,19.53
2019-02-22T03:59:07.332Z,20.80
2019-02-22T04:01:36.523Z,19.93
2019-02-22T04:04:06.159Z,20.63
2019-02-22T04:06:35.643Z,19.60
2019-02-22T04:09:09.900Z,20.60
2019-02-22T04:11:45.668Z,20.23
2019-02-22T04:14:10.513Z,19.40
2019-02-22T04:16:40.012Z,20.33
2019-02-22T04:19:09.517Z,19.17
2019-02-22T04:21:39.020Z,19.00
2019-02-22T04:24:08.435Z,18.73
2019-02-22T04:26:37.931Z,19.23
2019-02-22T04:29:07.493Z,19.23
2019-02-22T04:31:36.854Z,18.63
2019-02-22T04:34:06.266Z,17.27
2019-02-22T04:36:35.815Z,15.90
2019-02-22T04:39:07.070Z,17.00
2019-02-22T04:41:36.510Z,15.77
2019-02-22T04:44:06.125Z,14.63
2019-02-22T04:46:35.428Z,15.43
2019-02-22T04:49:05.030Z,16.60
2019-02-22T04:51:34.645Z,17.00
2019-02-22T04:54:04.251Z,17.53
2019-02-22T04:56:33.799Z,16.70
2019-02-22T04:59:03.165Z,17.00
2019-02-22T05:01:32.668Z,17.30
2019-02-22T05:04:02.164Z,15.27
2019-02-22T05:06:31.376Z,15.83
2019-02-22T05:09:01.499Z,15.73
2019-02-22T05:11:32.943Z,17.23
2019-02-22T05:14:02.247Z,17.13
2019-02-22T05:16:31.550Z,15.63
2019-02-22T05:19:00.853Z,16.23
2019-02-22T05:21:30.243Z,15.80
2019-02-22T05:23:59.457Z,14.83
2019-02-22T05:26:29.153Z,15.00
2019-02-22T05:28:58.666Z,13.93
2019-02-22T05:31:28.076Z,14.73
2019-02-22T05:33:57.375Z,15.57
2019-02-22T05:36:26.889Z,14.63
2019-02-22T05:38:56.185Z,14.67
2019-02-22T05:41:25.587Z,13.27
2019-02-22T05:43:55.190Z,13.13
2019-02-22T05:46:24.909Z,12.97
2019-02-22T05:48:54.314Z,11.50
2019-02-22T05:51:23.810Z,11.80
2019-02-22T05:53:53.314Z,13.13
2019-02-22T05:56:22.934Z,12.87
2019-02-22T05:58:52.631Z,12.23
2019-02-22T06:01:22.149Z,12.17
2019-02-22T06:03:51.664Z,12.73
2019-02-22T06:06:21.063Z,13.47
2019-02-22T06:08:50.455Z,13.83
2019-02-22T06:11:19.971Z,12.80
2019-02-22T06:13:49.881Z,13.00
2019-02-22T06:16:19.187Z,13.20
2019-02-22T06:18:48.719Z,12.60
2019-02-22T06:21:18.236Z,16.87
2019-02-22T06:23:47.710Z,13.83
2019-02-22T06:26:17.119Z,13.10
2019-02-22T06:28:46.606Z,13.10
2019-02-22T06:31:16.116Z,14.03
2019-02-22T06:33:45.431Z,12.67
2019-02-22T06:36:14.975Z,12.10
2019-02-22T06:38:46.570Z,12.53
2019-02-22T06:41:15.369Z,12.40
2019-02-22T06:43:44.875Z,12.33
2019-02-22T06:46:14.383Z,10.97
2019-02-22T06:48:43.590Z,12.03
2019-02-22T06:51:12.893Z,9.73
2019-02-22T06:53:42.417Z,11.23
2019-02-22T06:56:11.574Z,9.87
2019-02-22T06:58:40.985Z,10.77
2019-02-22T07:01:10.404Z,9.87
2019-02-22T07:03:39.617Z,10.30
2019-02-22T07:06:09.100Z,9.83
2019-02-22T07:08:38.600Z,9.33
2019-02-22T07:11:18.465Z,10.03
2019-02-22T07:13:47.870Z,9.23
2019-02-22T07:16:17.264Z,9.43
2019-02-22T07:18:46.661Z,9.77
2019-02-22T07:21:16.070Z,9.63
2019-02-22T07:23:45.382Z,9.90
2019-02-22T07:26:14.580Z,9.40
2019-02-22T07:28:44.391Z,10.00
2019-02-22T07:31:13.892Z,9.63
2019-02-22T07:33:43.399Z,9.00
2019-02-22T07:36:12.819Z,9.00
2019-02-22T07:38:42.304Z,8.30
2019-02-22T07:41:11.618Z,8.07
2019-02-22T07:43:40.817Z,7.83
2019-02-22T07:46:10.119Z,8.13
2019-02-22T07:48:39.619Z,8.03
2019-02-22T07:51:08.929Z,8.47
2019-02-22T07:53:38.228Z,7.90
2019-02-22T07:56:07.721Z,7.40
2019-02-22T07:58:36.871Z,7.63
2019-02-22T08:01:06.324Z,8.63
2019-02-22T08:03:37.409Z,7.93
2019-02-22T08:06:07.021Z,7.23
2019-02-22T08:08:36.510Z,6.73
2019-02-22T08:11:06.110Z,6.50
2019-02-22T08:13:35.404Z,6.27
2019-02-22T08:16:04.808Z,6.97
2019-02-22T08:18:34.315Z,6.37
2019-02-22T08:21:03.616Z,6.80
2019-02-22T08:23:34.046Z,7.10
2019-02-22T08:26:03.439Z,7.03
2019-02-22T08:28:32.972Z,7.40
2019-02-22T08:31:02.259Z,7.50
2019-02-22T08:33:31.754Z,7.27
2019-02-22T08:36:01.280Z,6.70
2019-02-22T08:38:30.780Z,6.83
2019-02-22T08:41:00.083Z,7.13
2019-02-22T08:43:31.729Z,7.67
2019-02-22T08:46:00.819Z,8.30
2019-02-22T08:48:30.033Z,7.53
2019-02-22T08:50:59.531Z,9.10
2019-02-22T08:53:28.841Z,8.90
2019-02-22T08:55:58.143Z,9.37
2019-02-22T08:58:27.711Z,9.70
2019-02-22T09:00:57.139Z,10.73
2019-02-22T09:03:26.482Z,11.50
2019-02-22T09:05:55.946Z,11.60
2019-02-22T09:08:25.459Z,11.87
2019-02-22T09:11:00.576Z,12.00
2019-02-22T09:13:26.015Z,11.40
2019-02-22T09:15:55.315Z,11.00
2019-02-22T09:18:24.618Z,11.60
2019-02-22T09:20:53.917Z,11.30
2019-02-22T09:23:23.321Z,11.33
2019-02-22T09:25:53.124Z,10.87
2019-02-22T09:28:22.728Z,10.17
2019-02-22T09:30:52.342Z,10.27
2019-02-22T09:33:21.852Z,10.03
2019-02-22T09:35:51.473Z,9.73
2019-02-22T09:38:21.270Z,8.73
2019-02-22T09:40:50.496Z,8.70
2019-02-22T09:43:19.685Z,7.90
2019-02-22T09:45:49.083Z,8.23
2019-02-22T09:48:18.282Z,7.63
2019-02-22T09:50:47.481Z,8.13
2019-02-22T09:53:16.659Z,8.00
2019-02-22T09:55:46.094Z,7.60
2019-02-22T09:58:15.574Z,7.90
2019-02-22T10:00:44.790Z,7.20
2019-02-22T10:03:13.989Z,7.30
2019-02-22T10:05:43.490Z,7.20
2019-02-22T10:08:12.993Z,7.50
2019-02-22T10:10:42.405Z,7.43
2019-02-22T10:13:13.448Z,7.73
2019-02-22T10:15:42.844Z,8.40
2019-02-22T10:18:12.158Z,6.83
2019-02-22T10:20:41.545Z,8.13
2019-02-22T10:23:11.468Z,7.97
2019-02-22T10:25:40.878Z,7.13
2019-02-22T10:28:17.337Z,7.97
2019-02-22T10:30:44.277Z,7.63
2019-02-22T10:33:13.783Z,8.03
2019-02-22T10:35:43.295Z,7.53
2019-02-22T10:38:12.507Z,7.87
2019-02-22T10:40:41.998Z,7.87
2019-02-22T10:43:11.461Z,8.20
2019-02-22T10:45:40.819Z,6.83
2019-02-22T10:48:10.140Z,6.67
2019-02-22T10:50:39.632Z,5.77
2019-02-22T10:53:10.947Z,5.40
2019-02-22T10:55:40.470Z,5.00
2019-02-22T10:58:09.993Z,4.87
2019-02-22T11:00:39.295Z,4.90
2019-02-22T11:03:08.892Z,4.53
2019-02-22T11:05:38.394Z,4.70
2019-02-22T11:08:07.896Z,4.60
2019-02-22T11:10:37.140Z,4.30
2019-02-22T11:13:06.812Z,4.50
2019-02-22T11:15:37.929Z,4.13
2019-02-22T11:18:07.290Z,4.67
2019-02-22T11:20:36.466Z,4.13
2019-02-22T11:23:05.767Z,4.17
2019-02-22T11:25:35.277Z,4.90
2019-02-22T11:28:05.182Z,4.50
2019-02-22T11:30:34.690Z,5.50
2019-02-22T11:33:04.103Z,6.00
2019-02-22T11:35:33.299Z,5.40
2019-02-22T11:38:02.830Z,5.77
2019-02-22T11:40:33.661Z,5.87
2019-02-22T11:43:03.086Z,6.00
2019-02-22T11:45:32.249Z,5.80
2019-02-22T11:48:09.056Z,5.87
2019-02-22T11:50:33.103Z,6.03
2019-02-22T11:53:02.512Z,6.27
2019-02-22T11:55:32.104Z,6.20
2019-02-22T11:58:01.419Z,6.60
2019-02-22T12:00:32.410Z,6.00
2019-02-22T12:03:15.781Z,6.80
2019-02-22T12:05:33.306Z,6.60
2019-02-22T12:08:03.623Z,6.97
2019-02-22T12:10:33.376Z,5.93
2019-02-22T12:13:03.193Z,6.57
2019-02-22T12:15:32.571Z,6.73
2019-02-22T12:18:02.082Z,6.80
2019-02-22T12:20:31.567Z,6.90
2019-02-22T12:23:00.995Z,6.47
2019-02-22T12:25:30.378Z,7.27
2019-02-22T12:27:59.889Z,7.03
2019-02-22T12:30:29.098Z,7.17
2019-02-22T12:32:58.499Z,7.17
2019-02-22T12:35:27.993Z,6.70
2019-02-22T12:37:57.414Z,7.33
2019-02-22T12:40:27.014Z,6.67
2019-02-22T12:42:57.278Z,7.40
2019-02-22T12:45:26.540Z,7.13
2019-02-22T12:47:55.751Z,6.80
2019-02-22T12:50:24.941Z,8.00
2019-02-22T12:52:54.547Z,7.03
2019-02-22T12:55:23.748Z,7.53
2019-02-22T12:57:53.351Z,7.93
2019-02-22T13:00:22.853Z,6.53
2019-02-22T13:03:01.509Z,7.40
2019-02-22T13:05:28.211Z,7.43
2019-02-22T13:07:57.729Z,7.27
2019-02-22T13:10:27.228Z,7.80
2019-02-22T13:12:56.729Z,7.63
2019-02-22T13:15:26.156Z,7.60
2019-02-22T13:17:55.453Z,7.50
2019-02-22T13:20:24.946Z,7.90
2019-02-22T13:22:54.172Z,8.17
2019-02-22T13:25:23.651Z,8.60
2019-02-22T13:27:53.164Z,7.53
2019-02-22T13:30:22.466Z,7.90
2019-02-22T13:32:51.847Z,8.30
2019-02-22T13:35:21.448Z,8.27
2019-02-22T13:37:50.679Z,8.60
2019-02-22T13:40:20.782Z,8.70
2019-02-22T13:42:50.706Z,9.00
2019-02-22T13:45:26.793Z,8.70
2019-02-22T13:47:51.566Z,9.30
2019-02-22T13:50:20.975Z,8.70
2019-02-22T13:52:50.364Z,8.00
2019-02-22T13:55:19.875Z,8.37
2019-02-22T13:57:49.187Z,8.77
2019-02-22T14:00:20.236Z,8.33
2019-02-22T14:02:51.808Z,8.77
2019-02-22T14:05:20.974Z,8.13
2019-02-22T14:07:55.200Z,7.90
2019-02-22T14:10:25.636Z,8.27
2019-02-22T14:12:55.128Z,7.37
2019-02-22T14:15:24.745Z,8.50
2019-02-22T14:17:54.249Z,8.97
2019-02-22T14:20:23.447Z,8.70
2019-02-22T14:22:52.649Z,9.17
2019-02-22T14:25:22.144Z,9.20
2019-02-22T14:27:51.353Z,8.80
2019-02-22T14:30:20.740Z,9.63
2019-02-22T14:32:52.004Z,8.93
2019-02-22T14:35:21.076Z,8.70
2019-02-22T14:37:50.401Z,8.50
2019-02-22T14:40:19.603Z,8.90
2019-02-22T14:42:49.007Z,8.13
2019-02-22T14:45:18.504Z,8.43
2019-02-22T14:47:47.814Z,8.13
2019-02-22T14:50:19.050Z,7.83
2019-02-22T14:52:48.464Z,7.30
2019-02-22T14:55:17.961Z,7.70
2019-02-22T14:57:47.468Z,7.83
2019-02-22T15:00:21.449Z,7.57
2019-02-22T15:02:50.793Z,7.47
2019-02-22T15:05:20.281Z,8.10
2019-02-22T15:07:49.802Z,7.83
2019-02-22T15:10:19.331Z,8.40
2019-02-22T15:12:48.720Z,7.83
2019-02-22T15:15:20.736Z,8.20
2019-02-22T15:17:54.547Z,8.00
2019-02-22T15:20:23.787Z,7.83
2019-02-22T15:22:54.524Z,7.77
2019-02-22T15:25:24.018Z,7.50
2019-02-22T15:27:53.231Z,7.90
2019-02-22T15:30:22.740Z,7.60
2019-02-22T15:32:52.237Z,8.03
2019-02-22T15:35:21.641Z,7.60
2019-02-22T15:37:51.182Z,7.93
2019-02-22T15:40:20.671Z,7.93
2019-02-22T15:44:16.773Z,6.90
2019-02-22T15:46:45.877Z,6.97
2019-02-22T15:49:34.329Z,7.60
2019-02-22T15:52:03.414Z,7.07
2019-02-22T15:54:32.525Z,6.03
2019-02-22T15:57:10.436Z,6.30
2019-02-22T15:59:39.581Z,5.87
2019-02-22T16:02:08.693Z,6.20
2019-02-22T16:04:39.446Z,5.90
2019-02-22T16:07:09.122Z,6.63
2019-02-22T16:09:38.234Z,5.53
2019-02-22T16:12:07.341Z,5.97
2019-02-22T16:14:36.439Z,5.30
2019-02-22T16:17:05.884Z,5.90
2019-02-22T16:19:35.004Z,6.00
2019-02-22T16:22:04.134Z,6.23
2019-02-22T16:24:33.562Z,6.23
2019-02-22T16:27:02.956Z,6.00
2019-02-22T16:29:32.034Z,6.27
2019-02-22T16:32:01.799Z,6.40
2019-02-22T16:34:31.131Z,6.77
2019-02-22T16:37:00.344Z,8.03
2019-02-22T16:39:29.763Z,6.90
2019-02-22T16:41:58.860Z,6.77
2019-02-22T16:44:28.129Z,7.17
2019-02-22T16:46:57.810Z,6.93
2019-02-22T16:49:26.885Z,7.93
2019-02-22T16:51:55.991Z,7.57
2019-02-22T16:54:25.363Z,6.90
2019-02-22T16:56:54.474Z,6.97
2019-02-22T16:59:23.597Z,7.70
2019-02-22T17:01:52.689Z,7.03
2019-02-22T17:04:21.769Z,8.03
2019-02-22T17:06:50.876Z,8.13
2019-02-22T17:09:20.219Z,6.83
2019-02-22T17:11:49.328Z,8.10
2019-02-22T17:14:18.472Z,7.90
2019-02-22T17:16:48.023Z,8.27
2019-02-22T17:19:17.103Z,7.77
2019-02-22T17:21:46.490Z,8.50
2019-02-22T17:24:15.566Z,8.40
2019-02-22T17:26:44.931Z,8.83
2019-02-22T17:29:14.046Z,8.73
2019-02-22T17:31:43.383Z,8.13
2019-02-22T17:34:12.721Z,8.20
2019-02-22T17:36:41.804Z,8.43
2019-02-22T17:39:10.925Z,9.43
2019-02-22T17:41:42.672Z,8.07
2019-02-22T17:44:11.017Z,8.40
2019-02-22T17:46:40.126Z,9.30
2019-02-22T17:49:09.469Z,9.37
2019-02-22T17:51:39.022Z,8.47
2019-02-22T17:54:08.085Z,9.90
2019-02-22T17:56:37.199Z,9.63
2019-02-22T17:59:06.326Z,9.90
2019-02-22T18:01:35.694Z,8.57
2019-02-22T18:04:05.034Z,9.57
2019-02-22T18:06:34.181Z,8.67
2019-02-22T18:09:04.994Z,10.10
2019-02-22T18:11:34.088Z,9.30
2019-02-22T18:14:03.425Z,10.17
2019-02-22T18:16:32.986Z,10.10
2019-02-22T18:19:02.079Z,10.80
2019-02-22T18:21:31.473Z,11.57
2019-02-22T18:24:00.567Z,11.40
2019-02-22T18:26:29.932Z,12.37
2019-02-22T18:29:00.770Z,11.83
2019-02-22T18:31:30.109Z,11.63
2019-02-22T18:33:59.275Z,11.17
2019-02-22T18:36:28.626Z,11.93
2019-02-22T18:38:58.021Z,12.03
2019-02-22T18:41:27.100Z,12.37
2019-02-22T18:43:56.824Z,11.73
2019-02-22T18:46:26.001Z,11.23
2019-02-22T18:48:55.136Z,11.70
2019-02-22T18:51:24.487Z,12.53
2019-02-22T18:53:53.601Z,11.83
2019-02-22T18:56:22.729Z,12.03
2019-02-22T18:58:51.836Z,12.20
2019-02-22T19:01:21.536Z,12.43
2019-02-22T19:03:51.076Z,12.13
2019-02-22T19:06:20.533Z,11.20
2019-02-22T19:08:50.016Z,12.23
2019-02-22T19:11:19.377Z,12.33
2019-02-22T19:13:48.500Z,11.57
2019-02-22T19:16:17.633Z,12.45
2019-02-22T19:18:47.038Z,12.43
2019-02-22T19:21:16.149Z,11.87
2019-02-22T19:23:45.541Z,12.90
2019-02-22T19:26:14.880Z,12.88
2019-02-22T19:28:44.240Z,12.63
2019-02-22T19:31:13.615Z,12.75
2019-02-22T19:33:42.958Z,12.93
2019-02-22T19:36:12.100Z,12.50
2019-02-22T19:38:41.485Z,12.93
2019-02-22T19:41:10.604Z,12.07
2019-02-22T19:43:40.248Z,13.05
2019-02-22T19:46:09.654Z,13.43
2019-02-22T19:48:38.848Z,13.45
2019-02-22T19:51:07.945Z,13.63
2019-02-22T19:53:37.066Z,13.53
2019-02-22T19:56:06.462Z,13.83
2019-02-22T19:58:36.154Z,13.90
2019-02-22T20:01:05.263Z,13.08
2019-02-22T20:03:34.767Z,13.62
2019-02-22T20:06:04.490Z,15.72
2019-02-22T20:08:33.876Z,17.10
2019-02-22T20:11:03.085Z,16.65
2019-02-22T20:13:32.560Z,15.58
2019-02-22T20:16:01.941Z,16.57
2019-02-22T20:18:31.047Z,17.97
2019-02-22T20:21:00.441Z,18.12
2019-02-22T20:23:29.529Z,17.62
2019-02-22T20:25:58.657Z,16.80
2019-02-22T20:28:27.748Z,15.83
2019-02-22T20:30:57.102Z,17.47
2019-02-22T20:33:26.467Z,17.77
2019-02-22T20:35:55.607Z,15.87
2019-02-22T20:38:24.704Z,16.80
2019-02-22T20:40:53.846Z,19.33
2019-02-22T20:43:23.187Z,20.17
2019-02-22T20:45:52.309Z,16.87
2019-02-22T20:48:21.689Z,19.90
2019-02-22T20:50:51.080Z,19.67
2019-02-22T20:53:20.161Z,18.77
2019-02-22T20:55:49.522Z,20.07
2019-02-22T20:58:18.909Z,19.93
2019-02-22T21:00:48.167Z,17.80
2019-02-22T21:03:17.603Z,18.50
2019-02-22T21:05:47.036Z,20.75
2019-02-22T21:08:16.227Z,22.40
2019-02-22T21:10:45.694Z,20.90
2019-02-22T21:13:15.056Z,22.23
2019-02-22T21:15:44.181Z,20.77
2019-02-22T21:18:16.490Z,20.23
2019-02-22T21:20:44.410Z,20.15
2019-02-22T21:23:13.538Z,19.35
2019-02-22T21:25:42.697Z,21.25
2019-02-22T21:28:12.070Z,20.60
2019-02-22T21:30:41.415Z,21.77
2019-02-22T21:33:10.508Z,21.90
2019-02-22T21:35:39.629Z,20.65
2019-02-22T21:38:08.748Z,20.72
2019-02-22T21:40:38.118Z,20.50
2019-02-22T21:43:07.618Z,18.25
2019-02-22T21:45:36.998Z,19.00
2019-02-22T21:48:06.089Z,17.40
2019-02-22T21:50:35.180Z,17.50
2019-02-22T21:53:04.329Z,17.07
2019-02-22T21:55:33.418Z,14.85
2019-02-22T21:58:02.773Z,14.47
2019-02-22T22:00:32.513Z,13.78
2019-02-22T22:03:01.650Z,13.20
2019-02-22T22:05:30.748Z,12.58
2019-02-22T22:08:00.345Z,13.00
2019-02-22T22:10:29.706Z,11.57
2019-02-22T22:13:00.083Z,12.50
2019-02-22T22:15:29.776Z,12.03
2019-02-22T22:17:59.121Z,11.45
2019-02-22T22:20:28.354Z,11.85
2019-02-22T22:22:57.495Z,11.57
2019-02-22T22:25:26.862Z,11.20
2019-02-22T22:27:55.951Z,11.78
2019-02-22T22:30:25.044Z,11.95
2019-02-22T22:32:54.177Z,11.38
2019-02-22T22:35:23.541Z,10.80
2019-02-22T22:37:52.699Z,12.03
2019-02-22T22:40:22.050Z,11.30
2019-02-22T22:42:51.555Z,10.38
2019-02-22T22:45:21.046Z,10.95
2019-02-22T22:47:50.193Z,11.85
2019-02-22T22:50:19.543Z,10.98
2019-02-22T22:52:48.640Z,10.53
2019-02-22T22:55:18.169Z,12.33
2019-02-22T22:57:47.252Z,9.80
2019-02-22T23:00:40.274Z,10.38
2019-02-22T23:03:09.709Z,10.70
2019-02-22T23:05:38.793Z,11.03
2019-02-22T23:08:07.954Z,9.98
2019-02-22T23:10:37.069Z,11.15
2019-02-22T23:13:06.535Z,11.05
2019-02-22T23:15:35.668Z,11.68
2019-02-22T23:18:04.772Z,10.10
2019-02-22T23:20:34.212Z,11.08
2019-02-22T23:23:03.349Z,11.68
2019-02-22T23:25:32.481Z,11.28
2019-02-22T23:28:01.641Z,10.95
2019-02-22T23:30:30.969Z,10.60
2019-02-22T23:33:00.123Z,11.25
2019-02-22T23:35:29.225Z,10.00
2019-02-22T23:37:58.369Z,10.20
2019-02-22T23:40:27.488Z,10.28
2019-02-22T23:42:56.944Z,9.85
2019-02-22T23:45:26.028Z,10.45
2019-02-22T23:47:55.426Z,10.43
2019-02-22T23:50:25.038Z,10.03
2019-02-22T23:52:54.177Z,10.08
2019-02-22T23:55:23.543Z,10.08
2019-02-22T23:57:52.901Z,9.75
